createdAt,value
2018-02-22T00:00:10.698Z,1016.18
2018-02-22T00:01:10.671Z,1016.14
2018-02-22T00:02:10.643Z,1016.12
2018-02-22T00:03:10.618Z,1016.19
2018-02-22T00:04:10.592Z,1016.15
2018-02-22T00:05:10.569Z,1016.11
2018-02-22T00:06:10.542Z,1016.17
2018-02-22T00:07:10.518Z,1016.17
2018-02-22T00:08:10.493Z,1016.17
2018-02-22T00:09:10.471Z,1016.18
2018-02-22T00:10:10.442Z,1016.21
2018-02-22T00:11:10.419Z,1016.14
2018-02-22T00:12:10.394Z,1016.2
2018-02-22T00:13:10.368Z,1016.17
2018-02-22T00:14:10.342Z,1016.17
2018-02-22T00:15:10.318Z,1016.17
2018-02-22T00:16:10.292Z,1016.2
2018-02-22T00:17:10.268Z,1016.18
2018-02-22T00:18:10.244Z,1016.18
2018-02-22T00:19:10.268Z,1016.17
2018-02-22T00:20:10.193Z,1016.24
2018-02-22T00:21:10.172Z,1016.17
2018-02-22T00:22:10.144Z,1016.18
2018-02-22T00:23:10.118Z,1016.17
2018-02-22T00:24:10.094Z,1016.2
2018-02-22T00:25:10.068Z,1016.14
2018-02-22T00:26:10.046Z,1016.14
2018-02-22T00:27:10.017Z,1016.16
2018-02-22T00:28:09.991Z,1016.1
2018-02-22T00:29:09.968Z,1016.12
2018-02-22T00:30:09.946Z,1016.1
2018-02-22T00:31:09.920Z,1016.07
2018-02-22T00:32:09.892Z,1016.07
2018-02-22T00:33:09.866Z,1016.09
2018-02-22T00:34:09.844Z,1016.09
2018-02-22T00:35:09.818Z,1016.06
2018-02-22T00:36:09.790Z,1016.1
2018-02-22T00:37:09.768Z,1016.09
2018-02-22T00:38:09.745Z,1016.04
2018-02-22T00:39:09.716Z,1016.1
2018-02-22T00:40:09.692Z,1016.06
2018-02-22T00:41:09.666Z,1016.07
2018-02-22T00:42:09.644Z,1016.03
2018-02-22T00:43:09.617Z,1016.08
2018-02-22T00:44:09.593Z,1016.05
2018-02-22T00:45:09.567Z,1016.07
2018-02-22T00:46:09.541Z,1015.99
2018-02-22T00:47:09.518Z,1015.97
2018-02-22T00:48:09.492Z,1015.99
2018-02-22T00:49:09.469Z,1016.02
2018-02-22T00:50:09.442Z,1016.01
2018-02-22T00:51:09.418Z,1016.02
2018-02-22T00:52:09.392Z,1016.02
2018-02-22T00:53:09.368Z,1016.05
2018-02-22T00:54:09.343Z,1016.08
2018-02-22T00:55:09.317Z,1016.02
2018-02-22T00:56:09.293Z,1016.05
2018-02-22T00:57:09.267Z,1016.03
2018-02-22T00:58:09.243Z,1016.02
2018-02-22T00:59:09.219Z,1016.03
2018-02-22T01:00:09.191Z,1016.04
2018-02-22T01:01:09.167Z,1016.01
2018-02-22T01:02:09.142Z,1016
2018-02-22T01:03:09.119Z,1016.04
2018-02-22T01:04:09.092Z,1016.01
2018-02-22T01:05:09.076Z,1016.08
2018-02-22T01:06:09.045Z,1016
2018-02-22T01:07:09.019Z,1016.02
2018-02-22T01:08:08.991Z,1015.98
2018-02-22T01:09:08.967Z,1016
2018-02-22T01:10:08.941Z,1016.02
2018-02-22T01:11:08.917Z,1016.02
2018-02-22T01:12:08.894Z,1016
2018-02-22T01:13:08.868Z,1015.95
2018-02-22T01:14:08.842Z,1015.96
2018-02-22T01:15:09.017Z,1015.95
2018-02-22T01:16:08.791Z,1015.99
2018-02-22T01:17:08.766Z,1015.94
2018-02-22T01:18:08.742Z,1015.99
2018-02-22T01:19:08.717Z,1015.93
2018-02-22T01:20:08.692Z,1015.99
2018-02-22T01:21:08.665Z,1016
2018-02-22T01:22:08.642Z,1015.99
2018-02-22T01:23:08.617Z,1016.01
2018-02-22T01:24:08.591Z,1015.97
2018-02-22T01:25:08.566Z,1015.91
2018-02-22T01:26:08.541Z,1015.96
2018-02-22T01:27:08.516Z,1015.93
2018-02-22T01:28:08.492Z,1015.98
2018-02-22T01:29:08.465Z,1016
2018-02-22T01:30:08.441Z,1015.95
2018-02-22T01:31:08.422Z,1015.97
2018-02-22T01:32:08.394Z,1015.98
2018-02-22T01:33:08.365Z,1016.01
2018-02-22T01:34:08.342Z,1015.99
2018-02-22T01:35:08.316Z,1015.93
2018-02-22T01:36:08.290Z,1015.98
2018-02-22T01:37:08.265Z,1016.01
2018-02-22T01:38:08.243Z,1015.97
2018-02-22T01:39:08.213Z,1015.97
2018-02-22T01:40:08.188Z,1015.99
2018-02-22T01:41:08.163Z,1015.96
2018-02-22T01:42:08.139Z,1015.98
2018-02-22T01:43:08.115Z,1016
2018-02-22T01:44:08.088Z,1016.01
2018-02-22T01:45:08.063Z,1015.95
2018-02-22T01:46:08.039Z,1015.98
2018-02-22T01:47:08.013Z,1015.97
2018-02-22T01:48:07.988Z,1015.94
2018-02-22T01:49:07.963Z,1015.95
2018-02-22T01:50:07.938Z,1015.94
2018-02-22T01:51:07.912Z,1015.94
2018-02-22T01:52:07.887Z,1015.9
2018-02-22T01:53:07.862Z,1015.95
2018-02-22T01:54:07.840Z,1015.9
2018-02-22T01:55:07.818Z,1015.89
2018-02-22T01:56:07.786Z,1015.86
2018-02-22T01:57:07.763Z,1015.8
2018-02-22T01:58:07.737Z,1015.83
2018-02-22T01:59:07.714Z,1015.88
2018-02-22T02:00:07.689Z,1015.85
2018-02-22T02:01:07.664Z,1015.83
2018-02-22T02:02:07.636Z,1015.86
2018-02-22T02:03:07.611Z,1015.84
2018-02-22T02:04:07.585Z,1015.86
2018-02-22T02:05:07.561Z,1015.83
2018-02-22T02:06:07.536Z,1015.83
2018-02-22T02:07:07.508Z,1015.88
2018-02-22T02:08:07.486Z,1015.8
2018-02-22T02:09:07.459Z,1015.84
2018-02-22T02:10:07.442Z,1015.82
2018-02-22T02:11:07.410Z,1015.8
2018-02-22T02:12:07.382Z,1015.83
2018-02-22T02:13:07.359Z,1015.8
2018-02-22T02:14:07.331Z,1015.82
2018-02-22T02:15:07.307Z,1015.82
2018-02-22T02:16:07.284Z,1015.84
2018-02-22T02:17:07.258Z,1015.81
2018-02-22T02:18:07.232Z,1015.79
2018-02-22T02:19:07.207Z,1015.83
2018-02-22T02:20:07.182Z,1015.81
2018-02-22T02:21:07.157Z,1015.83
2018-02-22T02:22:07.132Z,1015.8
2018-02-22T02:23:07.110Z,1015.77
2018-02-22T02:24:07.086Z,1015.78
2018-02-22T02:25:07.108Z,1015.78
2018-02-22T02:26:07.030Z,1015.78
2018-02-22T02:27:07.006Z,1015.83
2018-02-22T02:28:06.986Z,1015.79
2018-02-22T02:29:06.954Z,1015.8
2018-02-22T02:30:06.930Z,1015.8
2018-02-22T02:31:06.909Z,1015.81
2018-02-22T02:32:06.880Z,1015.81
2018-02-22T02:33:06.855Z,1015.8
2018-02-22T02:34:06.828Z,1015.78
2018-02-22T02:35:06.804Z,1015.8
2018-02-22T02:36:06.778Z,1015.74
2018-02-22T02:37:06.757Z,1015.74
2018-02-22T02:38:06.727Z,1015.73
2018-02-22T02:39:06.704Z,1015.71
2018-02-22T02:40:06.676Z,1015.73
2018-02-22T02:41:06.669Z,1015.73
2018-02-22T02:42:06.637Z,1015.76
2018-02-22T02:43:06.618Z,1015.76
2018-02-22T02:44:06.580Z,1015.77
2018-02-22T02:45:06.558Z,1015.73
2018-02-22T02:46:06.547Z,1015.72
2018-02-22T02:47:06.504Z,1015.72
2018-02-22T02:48:06.477Z,1015.7
2018-02-22T02:49:06.451Z,1015.68
2018-02-22T02:50:06.424Z,1015.69
2018-02-22T02:51:06.401Z,1015.66
2018-02-22T02:52:06.374Z,1015.69
2018-02-22T02:53:06.349Z,1015.68
2018-02-22T02:54:06.323Z,1015.72
2018-02-22T02:55:06.300Z,1015.68
2018-02-22T02:56:06.274Z,1015.73
2018-02-22T02:57:06.251Z,1015.7
2018-02-22T02:58:06.220Z,1015.76
2018-02-22T02:59:06.197Z,1015.73
2018-02-22T03:00:06.173Z,1015.71
2018-02-22T03:01:06.147Z,1015.75
2018-02-22T03:02:06.120Z,1015.7
2018-02-22T03:03:06.097Z,1015.75
2018-02-22T03:04:06.073Z,1015.74
2018-02-22T03:05:06.045Z,1015.74
2018-02-22T03:06:06.018Z,1015.71
2018-02-22T03:07:05.995Z,1015.69
2018-02-22T03:08:05.972Z,1015.72
2018-02-22T03:09:05.942Z,1015.71
2018-02-22T03:10:05.918Z,1015.75
2018-02-22T03:11:05.892Z,1015.73
2018-02-22T03:12:05.869Z,1015.71
2018-02-22T03:13:05.842Z,1015.72
2018-02-22T03:14:05.865Z,1015.74
2018-02-22T03:15:05.993Z,1015.7
2018-02-22T03:16:05.767Z,1015.73
2018-02-22T03:17:05.738Z,1015.73
2018-02-22T03:18:05.713Z,1015.7
2018-02-22T03:19:05.689Z,1015.73
2018-02-22T03:20:05.661Z,1015.69
2018-02-22T03:21:05.638Z,1015.71
2018-02-22T03:22:05.612Z,1015.69
2018-02-22T03:23:05.586Z,1015.69
2018-02-22T03:24:05.560Z,1015.7
2018-02-22T03:25:05.535Z,1015.67
2018-02-22T03:26:05.510Z,1015.66
2018-02-22T03:27:05.485Z,1015.66
2018-02-22T03:28:05.466Z,1015.69
2018-02-22T03:29:05.432Z,1015.65
2018-02-22T03:30:05.412Z,1015.68
2018-02-22T03:31:05.384Z,1015.68
2018-02-22T03:32:05.357Z,1015.64
2018-02-22T03:33:05.331Z,1015.61
2018-02-22T03:34:05.307Z,1015.67
2018-02-22T03:35:05.279Z,1015.6
2018-02-22T03:36:05.254Z,1015.63
2018-02-22T03:37:05.234Z,1015.64
2018-02-22T03:38:05.204Z,1015.62
2018-02-22T03:39:05.178Z,1015.66
2018-02-22T03:40:05.158Z,1015.67
2018-02-22T03:41:05.126Z,1015.64
2018-02-22T03:42:05.102Z,1015.6
2018-02-22T03:43:05.075Z,1015.6
2018-02-22T03:44:05.052Z,1015.64
2018-02-22T03:45:05.027Z,1015.65
2018-02-22T03:46:05.052Z,1015.63
2018-02-22T03:47:04.976Z,1015.64
2018-02-22T03:48:04.948Z,1015.61
2018-02-22T03:49:04.926Z,1015.62
2018-02-22T03:50:04.897Z,1015.66
2018-02-22T03:51:04.871Z,1015.64
2018-02-22T03:52:04.848Z,1015.63
2018-02-22T03:53:04.821Z,1015.61
2018-02-22T03:54:04.794Z,1015.61
2018-02-22T03:55:04.768Z,1015.62
2018-02-22T03:56:04.742Z,1015.59
2018-02-22T03:57:04.719Z,1015.59
2018-02-22T03:58:04.692Z,1015.64
2018-02-22T03:59:04.668Z,1015.6
2018-02-22T04:00:04.642Z,1015.62
2018-02-22T04:01:04.618Z,1015.6
2018-02-22T04:02:04.592Z,1015.61
2018-02-22T04:03:04.566Z,1015.61
2018-02-22T04:04:04.540Z,1015.66
2018-02-22T04:05:04.513Z,1015.66
2018-02-22T04:06:04.488Z,1015.69
2018-02-22T04:07:04.461Z,1015.72
2018-02-22T04:08:04.437Z,1015.7
2018-02-22T04:09:04.410Z,1015.65
2018-02-22T04:10:04.387Z,1015.69
2018-02-22T04:11:04.360Z,1015.7
2018-02-22T04:12:04.334Z,1015.71
2018-02-22T04:13:04.310Z,1015.73
2018-02-22T04:14:04.284Z,1015.76
2018-02-22T04:15:04.257Z,1015.75
2018-02-22T04:16:04.232Z,1015.76
2018-02-22T04:17:04.209Z,1015.72
2018-02-22T04:18:04.181Z,1015.73
2018-02-22T04:19:04.154Z,1015.73
2018-02-22T04:20:04.131Z,1015.69
2018-02-22T04:21:04.104Z,1015.75
2018-02-22T04:22:04.078Z,1015.75
2018-02-22T04:23:04.052Z,1015.71
2018-02-22T04:24:04.026Z,1015.74
2018-02-22T04:25:04.002Z,1015.78
2018-02-22T04:26:03.976Z,1015.77
2018-02-22T04:27:03.951Z,1015.82
2018-02-22T04:28:03.925Z,1015.88
2018-02-22T04:29:03.900Z,1015.88
2018-02-22T04:30:03.924Z,1015.84
2018-02-22T04:31:03.846Z,1015.87
2018-02-22T04:32:03.828Z,1015.86
2018-02-22T04:33:03.795Z,1015.83
2018-02-22T04:34:03.774Z,1015.9
2018-02-22T04:35:03.746Z,1015.9
2018-02-22T04:36:03.718Z,1015.91
2018-02-22T04:37:03.691Z,1015.87
2018-02-22T04:38:03.666Z,1015.88
2018-02-22T04:39:03.643Z,1015.87
2018-02-22T04:40:03.629Z,1015.89
2018-02-22T04:41:03.591Z,1015.88
2018-02-22T04:42:03.565Z,1015.91
2018-02-22T04:43:03.540Z,1015.88
2018-02-22T04:44:03.511Z,1015.9
2018-02-22T04:45:03.487Z,1015.87
2018-02-22T04:46:03.460Z,1015.9
2018-02-22T04:47:03.438Z,1015.86
2018-02-22T04:48:03.409Z,1015.88
2018-02-22T04:49:03.436Z,1015.88
2018-02-22T04:50:03.358Z,1015.89
2018-02-22T04:51:03.331Z,1015.9
2018-02-22T04:52:03.308Z,1015.91
2018-02-22T04:53:03.282Z,1015.91
2018-02-22T04:54:03.261Z,1015.88
2018-02-22T04:55:03.232Z,1015.91
2018-02-22T04:56:03.205Z,1015.89
2018-02-22T04:57:03.178Z,1015.84
2018-02-22T04:58:03.152Z,1015.86
2018-02-22T04:59:03.126Z,1015.85
2018-02-22T05:00:03.100Z,1015.83
2018-02-22T05:01:03.075Z,1015.83
2018-02-22T05:02:03.047Z,1015.86
2018-02-22T05:03:03.022Z,1015.85
2018-02-22T05:04:02.998Z,1015.88
2018-02-22T05:05:02.974Z,1015.85
2018-02-22T05:06:02.946Z,1015.92
2018-02-22T05:07:02.922Z,1015.94
2018-02-22T05:08:02.898Z,1015.92
2018-02-22T05:09:02.875Z,1015.89
2018-02-22T05:10:02.844Z,1015.9
2018-02-22T05:11:02.816Z,1015.9
2018-02-22T05:12:02.791Z,1015.88
2018-02-22T05:13:02.765Z,1015.89
2018-02-22T05:14:02.744Z,1015.91
2018-02-22T05:15:02.712Z,1015.89
2018-02-22T05:16:02.692Z,1015.9
2018-02-22T05:17:02.662Z,1015.89
2018-02-22T05:18:02.636Z,1015.86
2018-02-22T05:19:02.610Z,1015.91
2018-02-22T05:20:02.585Z,1015.94
2018-02-22T05:21:02.559Z,1015.92
2018-02-22T05:22:02.532Z,1015.9
2018-02-22T05:23:02.507Z,1015.91
2018-02-22T05:24:02.480Z,1015.93
2018-02-22T05:25:02.455Z,1015.93
2018-02-22T05:26:02.430Z,1015.88
2018-02-22T05:27:02.403Z,1015.94
2018-02-22T05:28:02.377Z,1015.95
2018-02-22T05:29:02.353Z,1015.94
2018-02-22T05:30:02.326Z,1015.94
2018-02-22T05:31:02.303Z,1015.97
2018-02-22T05:32:02.275Z,1015.96
2018-02-22T05:33:02.249Z,1015.97
2018-02-22T05:34:02.223Z,1015.93
2018-02-22T05:35:02.199Z,1015.96
2018-02-22T05:36:02.175Z,1015.93
2018-02-22T05:37:02.148Z,1015.95
2018-02-22T05:38:02.120Z,1016.01
2018-02-22T05:39:02.095Z,1015.95
2018-02-22T05:40:02.068Z,1016
2018-02-22T05:41:02.044Z,1015.97
2018-02-22T05:42:02.016Z,1015.95
2018-02-22T05:43:01.991Z,1015.97
2018-02-22T05:44:01.973Z,1016.01
2018-02-22T05:45:01.947Z,1015.99
2018-02-22T05:46:01.913Z,1015.98
2018-02-22T05:47:01.888Z,1016
2018-02-22T05:48:01.862Z,1016.07
2018-02-22T05:49:01.837Z,1016.07
2018-02-22T05:50:01.810Z,1016.07
2018-02-22T05:51:01.783Z,1016.06
2018-02-22T05:52:01.757Z,1016.03
2018-02-22T05:53:01.732Z,1016.11
2018-02-22T05:54:01.706Z,1016.08
2018-02-22T05:55:01.683Z,1016.13
2018-02-22T05:56:01.655Z,1016.08
2018-02-22T05:57:01.628Z,1016.05
2018-02-22T05:58:01.614Z,1016.07
2018-02-22T05:59:01.594Z,1016.07
2018-02-22T06:00:01.585Z,1016.04
2018-02-22T06:01:01.524Z,1016.06
2018-02-22T06:02:01.499Z,1016.07
2018-02-22T06:03:01.474Z,1016.03
2018-02-22T06:04:01.445Z,1016.07
2018-02-22T06:05:01.419Z,1016.08
2018-02-22T06:06:01.393Z,1016.08
2018-02-22T06:07:01.369Z,1016.09
2018-02-22T06:08:01.343Z,1016.12
2018-02-22T06:09:01.317Z,1016.11
2018-02-22T06:10:01.294Z,1016.1
2018-02-22T06:11:01.266Z,1016.09
2018-02-22T06:12:01.238Z,1016.14
2018-02-22T06:13:01.213Z,1016.09
2018-02-22T06:14:01.186Z,1016.09
2018-02-22T06:15:01.162Z,1016.07
2018-02-22T06:16:01.136Z,1016.1
2018-02-22T06:17:01.109Z,1016.11
2018-02-22T06:18:01.083Z,1016.08
2018-02-22T06:19:01.057Z,1016.11
2018-02-22T06:20:01.031Z,1016.08
2018-02-22T06:21:01.003Z,1016.06
2018-02-22T06:22:00.980Z,1016.1
2018-02-22T06:23:00.953Z,1016.06
2018-02-22T06:24:00.926Z,1016.06
2018-02-22T06:25:00.902Z,1016.11
2018-02-22T06:26:00.874Z,1016.1
2018-02-22T06:27:00.849Z,1016.11
2018-02-22T06:28:00.823Z,1016.12
2018-02-22T06:29:00.797Z,1016.11
2018-02-22T06:30:00.770Z,1016.11
2018-02-22T06:31:00.747Z,1016.12
2018-02-22T06:32:00.721Z,1016.12
2018-02-22T06:33:00.693Z,1016.18
2018-02-22T06:34:00.667Z,1016.14
2018-02-22T06:35:00.640Z,1016.14
2018-02-22T06:36:00.647Z,1016.12
2018-02-22T06:37:00.590Z,1016.12
2018-02-22T06:38:00.563Z,1016.14
2018-02-22T06:39:00.542Z,1016.19
2018-02-22T06:40:00.511Z,1016.15
2018-02-22T06:41:00.486Z,1016.21
2018-02-22T06:42:00.460Z,1016.13
2018-02-22T06:43:00.432Z,1016.18
2018-02-22T06:44:00.410Z,1016.19
2018-02-22T06:45:00.381Z,1016.18
2018-02-22T06:46:00.359Z,1016.17
2018-02-22T06:47:00.330Z,1016.19
2018-02-22T06:48:00.303Z,1016.22
2018-02-22T06:49:00.277Z,1016.24
2018-02-22T06:50:00.252Z,1016.25
2018-02-22T06:51:00.225Z,1016.23
2018-02-22T06:52:00.198Z,1016.24
2018-02-22T06:53:00.174Z,1016.27
2018-02-22T06:54:00.147Z,1016.22
2018-02-22T06:55:00.122Z,1016.26
2018-02-22T06:56:00.095Z,1016.29
2018-02-22T06:57:00.070Z,1016.27
2018-02-22T06:58:00.101Z,1016.22
2018-02-22T06:59:00.017Z,1016.21
2018-02-22T06:59:59.992Z,1016.28
2018-02-22T07:00:59.967Z,1016.27
2018-02-22T07:01:59.942Z,1016.25
2018-02-22T07:02:59.920Z,1016.22
2018-02-22T07:03:59.888Z,1016.28
2018-02-22T07:04:59.861Z,1016.29
2018-02-22T07:05:59.845Z,1016.27
2018-02-22T07:06:59.811Z,1016.24
2018-02-22T07:07:59.785Z,1016.26
2018-02-22T07:08:59.760Z,1016.29
2018-02-22T07:09:59.736Z,1016.29
2018-02-22T07:10:59.708Z,1016.28
2018-02-22T07:11:59.682Z,1016.28
2018-02-22T07:12:59.659Z,1016.28
2018-02-22T07:13:59.629Z,1016.3
2018-02-22T07:14:59.607Z,1016.31
2018-02-22T07:15:59.783Z,1016.25
2018-02-22T07:16:59.552Z,1016.27
2018-02-22T07:17:59.528Z,1016.23
2018-02-22T07:18:59.502Z,1016.31
2018-02-22T07:19:59.475Z,1016.3
2018-02-22T07:20:59.448Z,1016.31
2018-02-22T07:21:59.423Z,1016.31
2018-02-22T07:22:59.396Z,1016.33
2018-02-22T07:23:59.373Z,1016.33
2018-02-22T07:24:59.346Z,1016.38
2018-02-22T07:25:59.331Z,1016.39
2018-02-22T07:26:59.297Z,1016.37
2018-02-22T07:27:59.269Z,1016.38
2018-02-22T07:28:59.246Z,1016.39
2018-02-22T07:29:59.218Z,1016.36
2018-02-22T07:30:59.194Z,1016.36
2018-02-22T07:31:59.169Z,1016.35
2018-02-22T07:32:59.143Z,1016.36
2018-02-22T07:33:59.115Z,1016.34
2018-02-22T07:34:59.101Z,1016.41
2018-02-22T07:35:59.069Z,1016.33
2018-02-22T07:36:59.040Z,1016.39
2018-02-22T07:37:59.027Z,1016.39
2018-02-22T07:38:58.989Z,1016.39
2018-02-22T07:39:58.963Z,1016.46
2018-02-22T07:40:58.937Z,1016.43
2018-02-22T07:41:58.911Z,1016.44
2018-02-22T07:42:58.887Z,1016.47
2018-02-22T07:43:58.862Z,1016.5
2018-02-22T07:44:58.838Z,1016.45
2018-02-22T07:45:58.811Z,1016.47
2018-02-22T07:46:58.789Z,1016.49
2018-02-22T07:47:58.760Z,1016.46
2018-02-22T07:48:58.736Z,1016.46
2018-02-22T07:49:58.710Z,1016.45
2018-02-22T07:50:58.687Z,1016.48
2018-02-22T07:51:58.662Z,1016.48
2018-02-22T07:52:58.634Z,1016.47
2018-02-22T07:53:58.609Z,1016.47
2018-02-22T07:54:58.585Z,1016.48
2018-02-22T07:55:58.564Z,1016.5
2018-02-22T07:56:58.537Z,1016.45
2018-02-22T07:57:58.511Z,1016.47
2018-02-22T07:58:58.486Z,1016.45
2018-02-22T07:59:58.470Z,1016.52
2018-02-22T08:00:58.432Z,1016.5
2018-02-22T08:01:58.409Z,1016.49
2018-02-22T08:02:58.383Z,1016.53
2018-02-22T08:03:58.360Z,1016.54
2018-02-22T08:04:58.335Z,1016.52
2018-02-22T08:05:58.314Z,1016.52
2018-02-22T08:06:58.289Z,1016.52
2018-02-22T08:07:58.265Z,1016.54
2018-02-22T08:08:58.236Z,1016.53
2018-02-22T08:09:58.219Z,1016.54
2018-02-22T08:10:58.189Z,1016.55
2018-02-22T08:11:58.161Z,1016.54
2018-02-22T08:12:58.135Z,1016.56
2018-02-22T08:13:58.118Z,1016.54
2018-02-22T08:14:58.087Z,1016.58
2018-02-22T08:15:58.066Z,1016.57
2018-02-22T08:16:58.044Z,1016.55
2018-02-22T08:17:58.014Z,1016.58
2018-02-22T08:18:57.988Z,1016.63
2018-02-22T08:19:57.963Z,1016.6
2018-02-22T08:20:57.943Z,1016.6
2018-02-22T08:21:57.915Z,1016.58
2018-02-22T08:22:57.890Z,1016.58
2018-02-22T08:23:57.867Z,1016.53
2018-02-22T08:24:57.841Z,1016.57
2018-02-22T08:25:57.819Z,1016.55
2018-02-22T08:26:57.792Z,1016.54
2018-02-22T08:27:57.771Z,1016.58
2018-02-22T08:28:57.744Z,1016.58
2018-02-22T08:29:57.719Z,1016.63
2018-02-22T08:30:57.702Z,1016.65
2018-02-22T08:31:57.673Z,1016.67
2018-02-22T08:32:57.647Z,1016.57
2018-02-22T08:33:57.668Z,1016.54
2018-02-22T08:34:57.600Z,1016.56
2018-02-22T08:35:57.580Z,1016.54
2018-02-22T08:36:57.557Z,1016.62
2018-02-22T08:37:57.530Z,1016.64
2018-02-22T08:38:57.505Z,1016.69
2018-02-22T08:39:57.483Z,1016.71
2018-02-22T08:40:57.463Z,1016.66
2018-02-22T08:41:57.437Z,1016.66
2018-02-22T08:42:57.417Z,1016.61
2018-02-22T08:43:57.395Z,1016.61
2018-02-22T08:44:57.374Z,1016.68
2018-02-22T08:45:57.348Z,1016.74
2018-02-22T08:46:57.329Z,1016.72
2018-02-22T08:47:57.306Z,1016.75
2018-02-22T08:48:57.286Z,1016.72
2018-02-22T08:49:57.264Z,1016.74
2018-02-22T08:50:57.244Z,1016.74
2018-02-22T08:51:57.224Z,1016.74
2018-02-22T08:52:57.202Z,1016.73
2018-02-22T08:53:57.184Z,1016.76
2018-02-22T08:54:57.164Z,1016.72
2018-02-22T08:55:57.145Z,1016.73
2018-02-22T08:56:57.125Z,1016.74
2018-02-22T08:57:57.110Z,1016.76
2018-02-22T08:58:57.089Z,1016.8
2018-02-22T08:59:57.070Z,1016.75
2018-02-22T09:00:57.053Z,1016.73
2018-02-22T09:01:57.037Z,1016.77
2018-02-22T09:02:57.019Z,1016.76
2018-02-22T09:03:56.998Z,1016.76
2018-02-22T09:04:56.982Z,1016.78
2018-02-22T09:05:56.964Z,1016.77
2018-02-22T09:06:56.948Z,1016.8
2018-02-22T09:07:56.931Z,1016.83
2018-02-22T09:08:56.914Z,1016.78
2018-02-22T09:09:56.897Z,1016.71
2018-02-22T09:10:56.879Z,1016.72
2018-02-22T09:11:56.864Z,1016.71
2018-02-22T09:12:56.846Z,1016.73
2018-02-22T09:13:56.830Z,1016.72
2018-02-22T09:14:56.817Z,1016.75
2018-02-22T09:15:57.000Z,1016.76
2018-02-22T09:16:56.784Z,1016.77
2018-02-22T09:17:56.765Z,1016.73
2018-02-22T09:18:56.750Z,1016.66
2018-02-22T09:19:56.735Z,1016.72
2018-02-22T09:20:56.725Z,1016.74
2018-02-22T09:21:56.705Z,1016.72
2018-02-22T09:22:56.689Z,1016.64
2018-02-22T09:24:56.666Z,1016.69
2018-02-22T09:25:56.644Z,1016.65
2018-02-22T09:26:56.645Z,1016.57
2018-02-22T09:27:56.635Z,1016.55
2018-02-22T09:28:56.595Z,1016.56
2018-02-22T09:29:56.579Z,1016.53
2018-02-22T09:30:56.563Z,1016.57
2018-02-22T09:31:56.546Z,1016.5
2018-02-22T09:32:56.530Z,1016.6
2018-02-22T09:33:56.514Z,1016.59
2018-02-22T09:34:56.561Z,1016.58
2018-02-22T09:35:56.482Z,1016.55
2018-02-22T09:36:56.464Z,1016.58
2018-02-22T09:37:56.448Z,1016.55
2018-02-22T09:38:56.434Z,1016.53
2018-02-22T09:39:56.414Z,1016.49
2018-02-22T09:40:56.398Z,1016.53
2018-02-22T09:41:56.380Z,1016.54
2018-02-22T09:42:56.366Z,1016.56
2018-02-22T09:43:56.345Z,1016.56
2018-02-22T09:44:56.330Z,1016.49
2018-02-22T09:45:56.312Z,1016.48
2018-02-22T09:46:56.299Z,1016.49
2018-02-22T09:47:56.278Z,1016.49
2018-02-22T09:48:56.261Z,1016.54
2018-02-22T09:49:56.244Z,1016.51
2018-02-22T09:50:56.226Z,1016.51
2018-02-22T09:51:56.208Z,1016.59
2018-02-22T09:52:56.193Z,1016.56
2018-02-22T09:53:56.174Z,1016.56
2018-02-22T09:54:56.161Z,1016.52
2018-02-22T09:55:56.140Z,1016.49
2018-02-22T09:56:56.127Z,1016.55
2018-02-22T09:57:56.105Z,1016.52
2018-02-22T09:58:56.089Z,1016.54
2018-02-22T09:59:56.074Z,1016.52
2018-02-22T10:00:56.127Z,1016.53
2018-02-22T10:01:56.039Z,1016.53
2018-02-22T10:02:56.022Z,1016.53
2018-02-22T10:03:56.006Z,1016.53
2018-02-22T10:04:55.989Z,1016.51
2018-02-22T10:05:55.972Z,1016.47
2018-02-22T10:06:55.956Z,1016.53
2018-02-22T10:07:55.938Z,1016.51
2018-02-22T10:08:55.924Z,1016.51
2018-02-22T10:09:55.905Z,1016.49
2018-02-22T10:10:55.890Z,1016.5
2018-02-22T10:11:55.872Z,1016.5
2018-02-22T10:12:55.851Z,1016.48
2018-02-22T10:13:55.835Z,1016.48
2018-02-22T10:14:55.820Z,1016.45
2018-02-22T10:15:55.800Z,1016.48
2018-02-22T10:16:55.785Z,1016.45
2018-02-22T10:17:55.768Z,1016.45
2018-02-22T10:18:55.757Z,1016.48
2018-02-22T10:19:55.733Z,1016.43
2018-02-22T10:20:55.719Z,1016.43
2018-02-22T10:21:55.704Z,1016.43
2018-02-22T10:22:55.686Z,1016.47
2018-02-22T10:23:55.670Z,1016.44
2018-02-22T10:24:55.654Z,1016.47
2018-02-22T10:25:55.643Z,1016.46
2018-02-22T10:26:55.622Z,1016.49
2018-02-22T10:27:55.607Z,1016.44
2018-02-22T10:28:55.592Z,1016.42
2018-02-22T10:29:55.578Z,1016.48
2018-02-22T10:30:55.563Z,1016.45
2018-02-22T10:31:55.550Z,1016.46
2018-02-22T10:32:55.533Z,1016.43
2018-02-22T10:33:55.519Z,1016.46
2018-02-22T10:34:55.506Z,1016.45
2018-02-22T10:35:55.489Z,1016.44
2018-02-22T10:36:55.474Z,1016.43
2018-02-22T10:37:55.459Z,1016.44
2018-02-22T10:38:55.445Z,1016.47
2018-02-22T10:39:55.430Z,1016.48
2018-02-22T10:40:55.418Z,1016.45
2018-02-22T10:41:55.401Z,1016.45
2018-02-22T10:42:55.388Z,1016.41
2018-02-22T10:43:55.373Z,1016.36
2018-02-22T10:44:55.359Z,1016.41
2018-02-22T10:45:55.346Z,1016.43
2018-02-22T10:46:55.330Z,1016.39
2018-02-22T10:47:55.318Z,1016.37
2018-02-22T10:48:55.301Z,1016.32
2018-02-22T10:49:55.288Z,1016.34
2018-02-22T10:50:55.273Z,1016.33
2018-02-22T10:51:55.262Z,1016.28
2018-02-22T10:52:55.245Z,1016.31
2018-02-22T10:53:55.233Z,1016.31
2018-02-22T10:54:55.223Z,1016.29
2018-02-22T10:55:55.206Z,1016.3
2018-02-22T10:56:55.198Z,1016.33
2018-02-22T10:57:55.178Z,1016.27
2018-02-22T10:58:55.167Z,1016.31
2018-02-22T10:59:55.150Z,1016.46
2018-02-22T11:00:55.137Z,1016.45
2018-02-22T11:01:55.123Z,1016.61
2018-02-22T11:02:55.110Z,1016.6
2018-02-22T11:03:55.098Z,1016.51
2018-02-22T11:04:55.082Z,1016.5
2018-02-22T11:05:55.068Z,1016.49
2018-02-22T11:06:55.054Z,1016.51
2018-02-22T11:07:55.040Z,1016.66
2018-02-22T11:08:55.027Z,1016.66
2018-02-22T11:09:55.012Z,1016.8
2018-02-22T11:10:54.998Z,1016.89
2018-02-22T11:11:54.988Z,1016.57
2018-02-22T11:12:54.976Z,1016.45
2018-02-22T11:13:54.958Z,1016.33
2018-02-22T11:14:54.944Z,1016.35
2018-02-22T11:15:55.132Z,1016.34
2018-02-22T11:16:54.918Z,1016.29
2018-02-22T11:17:54.902Z,1016.34
2018-02-22T11:18:54.891Z,1016.3
2018-02-22T11:19:54.875Z,1016.29
2018-02-22T11:20:54.861Z,1016.31
2018-02-22T11:21:54.848Z,1016.26
2018-02-22T11:22:54.833Z,1016.23
2018-02-22T11:23:54.821Z,1016.26
2018-02-22T11:24:54.809Z,1016.24
2018-02-22T11:25:54.795Z,1016.3
2018-02-22T11:26:54.784Z,1016.32
2018-02-22T11:27:54.772Z,1016.26
2018-02-22T11:28:54.759Z,1016.27
2018-02-22T11:29:54.747Z,1016.3
2018-02-22T11:30:54.735Z,1016.21
2018-02-22T11:31:54.724Z,1016.2
2018-02-22T11:32:54.710Z,1016.23
2018-02-22T11:33:54.699Z,1016.24
2018-02-22T11:34:54.690Z,1016.21
2018-02-22T11:35:54.675Z,1016.18
2018-02-22T11:36:54.667Z,1016.2
2018-02-22T11:37:54.656Z,1016.24
2018-02-22T11:38:54.641Z,1016.25
2018-02-22T11:39:54.630Z,1016.2
2018-02-22T11:40:54.619Z,1016.16
2018-02-22T11:41:54.607Z,1016.19
2018-02-22T11:42:54.596Z,1016.2
2018-02-22T11:43:54.585Z,1016.19
2018-02-22T11:44:54.573Z,1016.22
2018-02-22T11:45:54.571Z,1016.21
2018-02-22T11:46:54.550Z,1016.26
2018-02-22T11:47:54.538Z,1016.21
2018-02-22T11:48:54.526Z,1016.17
2018-02-22T11:49:54.515Z,1016.14
2018-02-22T11:50:54.504Z,1016.15
2018-02-22T11:51:54.510Z,1016.11
2018-02-22T11:52:54.480Z,1016.09
2018-02-22T11:53:54.473Z,1016.07
2018-02-22T11:54:54.455Z,1016.08
2018-02-22T11:55:54.444Z,1016
2018-02-22T11:56:54.440Z,1016
2018-02-22T11:57:54.421Z,1015.99
2018-02-22T11:58:54.409Z,1015.92
2018-02-22T11:59:54.399Z,1015.98
2018-02-22T12:00:54.387Z,1015.99
2018-02-22T12:01:54.375Z,1016
2018-02-22T12:02:54.363Z,1015.96
2018-02-22T12:03:54.356Z,1016.01
2018-02-22T12:04:54.347Z,1015.96
2018-02-22T12:05:54.331Z,1015.91
2018-02-22T12:06:54.322Z,1015.94
2018-02-22T12:07:54.320Z,1015.86
2018-02-22T12:08:54.303Z,1015.89